sensor_id;sensor_type;location;lat;lon;timestamp;pressure;altitude;pressure_sealevel;temperature;humidity
49999;BME280;68071;45.062;7.356;2023-03-16T00:02:58;95221.75;;;3.73;49.98
49999;BME280;68071;45.062;7.356;2023-03-16T00:06:02;95230.19;;;4.80;45.02
49999;BME280;68071;45.062;7.356;2023-03-16T00:09:07;95229.16;;;4.15;48.13
49999;BME280;68071;45.062;7.356;2023-03-16T00:12:17;95226.47;;;4.19;47.60
49999;BME280;68071;45.062;7.356;2023-03-16T00:15:22;95231.50;;;4.17;49.50
49999;BME280;68071;45.062;7.356;2023-03-16T00:18:27;95236.00;;;3.62;51.95
49999;BME280;68071;45.062;7.356;2023-03-16T00:21:31;95238.09;;;3.50;51.55
49999;BME280;68071;45.062;7.356;2023-03-16T00:24:37;95231.75;;;3.65;50.27
49999;BME280;68071;45.062;7.356;2023-03-16T00:27:41;95239.72;;;3.54;51.40
49999;BME280;68071;45.062;7.356;2023-03-16T00:30:46;95239.88;;;3.22;55.86
49999;BME280;68071;45.062;7.356;2023-03-16T00:33:52;95246.28;;;4.59;44.79
49999;BME280;68071;45.062;7.356;2023-03-16T00:36:57;95243.13;;;4.33;46.64
49999;BME280;68071;45.062;7.356;2023-03-16T00:40:02;95251.28;;;4.80;44.79
49999;BME280;68071;45.062;7.356;2023-03-16T00:43:07;95244.94;;;4.02;48.84
49999;BME280;68071;45.062;7.356;2023-03-16T00:46:16;95236.66;;;4.45;45.91
49999;BME280;68071;45.062;7.356;2023-03-16T00:49:20;95242.38;;;4.13;47.73
49999;BME280;68071;45.062;7.356;2023-03-16T00:52:25;95237.50;;;3.60;51.09
49999;BME280;68071;45.062;7.356;2023-03-16T00:55:30;95242.72;;;4.31;46.21
49999;BME280;68071;45.062;7.356;2023-03-16T00:58:37;95243.19;;;4.87;44.30
49999;BME280;68071;45.062;7.356;2023-03-16T01:01:41;95241.91;;;4.31;47.11
49999;BME280;68071;45.062;7.356;2023-03-16T01:04:45;95240.50;;;3.94;52.15
49999;BME280;68071;45.062;7.356;2023-03-16T01:07:49;95229.03;;;3.88;51.24
49999;BME280;68071;45.062;7.356;2023-03-16T01:10:55;95222.81;;;3.88;49.02
49999;BME280;68071;45.062;7.356;2023-03-16T01:14:00;95217.00;;;3.50;51.55
49999;BME280;68071;45.062;7.356;2023-03-16T01:17:05;95223.00;;;3.36;52.42
49999;BME280;68071;45.062;7.356;2023-03-16T01:20:11;95211.75;;;3.61;48.86
49999;BME280;68071;45.062;7.356;2023-03-16T01:23:17;95210.75;;;3.50;49.64
49999;BME280;68071;45.062;7.356;2023-03-16T01:26:21;95210.69;;;3.46;50.11
49999;BME280;68071;45.062;7.356;2023-03-16T01:29:27;95212.06;;;3.36;50.18
49999;BME280;68071;45.062;7.356;2023-03-16T01:32:34;95216.06;;;3.42;50.40
49999;BME280;68071;45.062;7.356;2023-03-16T01:35:39;95221.41;;;3.35;50.56
49999;BME280;68071;45.062;7.356;2023-03-16T01:38:44;95221.88;;;3.01;52.96
49999;BME280;68071;45.062;7.356;2023-03-16T01:41:49;95223.31;;;3.15;51.01
49999;BME280;68071;45.062;7.356;2023-03-16T01:44:56;95217.56;;;3.00;51.96
49999;BME280;68071;45.062;7.356;2023-03-16T01:48:09;95223.63;;;3.10;56.38
49999;BME280;68071;45.062;7.356;2023-03-16T01:51:14;95222.34;;;3.23;49.83
49999;BME280;68071;45.062;7.356;2023-03-16T01:54:43;95216.25;;;2.94;53.54
49999;BME280;68071;45.062;7.356;2023-03-16T01:57:48;95226.22;;;3.22;49.66
49999;BME280;68071;45.062;7.356;2023-03-16T02:00:53;95220.25;;;3.16;53.34
49999;BME280;68071;45.062;7.356;2023-03-16T02:04:09;95221.91;;;2.85;54.71
49999;BME280;68071;45.062;7.356;2023-03-16T02:07:17;95222.50;;;3.30;52.27
49999;BME280;68071;45.062;7.356;2023-03-16T02:10:22;95225.06;;;3.23;51.71
49999;BME280;68071;45.062;7.356;2023-03-16T02:13:27;95227.47;;;2.89;51.54
49999;BME280;68071;45.062;7.356;2023-03-16T02:16:32;95229.28;;;3.01;55.30
49999;BME280;68071;45.062;7.356;2023-03-16T02:22:47;95232.63;;;2.94;56.82
49999;BME280;68071;45.062;7.356;2023-03-16T02:32:54;95236.97;;;2.11;60.56
49999;BME280;68071;45.062;7.356;2023-03-16T02:36:00;95248.00;;;0.89;70.50
49999;BME280;68071;45.062;7.356;2023-03-16T02:39:05;95257.00;;;1.18;67.59
49999;BME280;68071;45.062;7.356;2023-03-16T02:42:19;95244.22;;;1.75;60.69
49999;BME280;68071;45.062;7.356;2023-03-16T02:45:40;95242.91;;;2.65;56.32
49999;BME280;68071;45.062;7.356;2023-03-16T02:48:54;95233.69;;;2.38;58.46
49999;BME280;68071;45.062;7.356;2023-03-16T02:52:01;95236.25;;;1.99;60.84
49999;BME280;68071;45.062;7.356;2023-03-16T02:55:08;95240.06;;;1.81;61.64
49999;BME280;68071;45.062;7.356;2023-03-16T02:58:13;95247.13;;;1.54;65.76
49999;BME280;68071;45.062;7.356;2023-03-16T03:01:17;95246.25;;;1.78;60.17
49999;BME280;68071;45.062;7.356;2023-03-16T03:04:22;95240.19;;;2.01;62.97
49999;BME280;68071;45.062;7.356;2023-03-16T03:07:26;95233.31;;;1.75;62.22
49999;BME280;68071;45.062;7.356;2023-03-16T03:10:39;95237.34;;;1.81;61.39
49999;BME280;68071;45.062;7.356;2023-03-16T03:13:44;95229.25;;;1.69;64.03
49999;BME280;68071;45.062;7.356;2023-03-16T03:16:54;95236.47;;;1.77;60.63
49999;BME280;68071;45.062;7.356;2023-03-16T03:19:59;95242.53;;;1.87;63.43
49999;BME280;68071;45.062;7.356;2023-03-16T03:23:05;95240.66;;;2.19;58.25
49999;BME280;68071;45.062;7.356;2023-03-16T03:26:12;95245.13;;;1.95;60.38
49999;BME280;68071;45.062;7.356;2023-03-16T03:29:18;95249.34;;;2.57;55.89
49999;BME280;68071;45.062;7.356;2023-03-16T03:32:22;95250.59;;;2.44;56.27
49999;BME280;68071;45.062;7.356;2023-03-16T03:35:26;95249.06;;;2.46;55.81
49999;BME280;68071;45.062;7.356;2023-03-16T03:38:31;95258.53;;;2.17;59.44
49999;BME280;68071;45.062;7.356;2023-03-16T03:41:36;95253.06;;;2.17;60.51
49999;BME280;68071;45.062;7.356;2023-03-16T03:44:41;95261.22;;;2.01;62.08
49999;BME280;68071;45.062;7.356;2023-03-16T03:47:45;95267.69;;;1.80;63.04
49999;BME280;68071;45.062;7.356;2023-03-16T03:50:57;95266.59;;;1.97;62.65
49999;BME280;68071;45.062;7.356;2023-03-16T03:54:33;95273.38;;;2.19;60.71
49999;BME280;68071;45.062;7.356;2023-03-16T03:57:50;95278.09;;;2.06;60.49
49999;BME280;68071;45.062;7.356;2023-03-16T04:00:54;95273.22;;;2.44;59.39
49999;BME280;68071;45.062;7.356;2023-03-16T04:03:58;95273.47;;;2.55;58.46
49999;BME280;68071;45.062;7.356;2023-03-16T04:07:02;95270.75;;;2.55;58.04
49999;BME280;68071;45.062;7.356;2023-03-16T04:10:07;95283.16;;;2.68;57.79
49999;BME280;68071;45.062;7.356;2023-03-16T04:13:16;95276.72;;;2.29;60.46
49999;BME280;68071;45.062;7.356;2023-03-16T04:16:20;95281.81;;;2.14;61.02
49999;BME280;68071;45.062;7.356;2023-03-16T04:19:28;95283.88;;;1.89;63.16
49999;BME280;68071;45.062;7.356;2023-03-16T04:22:33;95299.41;;;2.17;61.73
49999;BME280;68071;45.062;7.356;2023-03-16T04:25:40;95294.00;;;1.88;63.27
49999;BME280;68071;45.062;7.356;2023-03-16T04:28:46;95289.25;;;2.01;61.93
49999;BME280;68071;45.062;7.356;2023-03-16T04:31:54;95288.03;;;1.99;61.75
49999;BME280;68071;45.062;7.356;2023-03-16T04:34:59;95287.75;;;1.88;62.47
49999;BME280;68071;45.062;7.356;2023-03-16T04:38:18;95284.03;;;1.51;65.64
49999;BME280;68071;45.062;7.356;2023-03-16T04:41:34;95291.75;;;1.49;64.99
49999;BME280;68071;45.062;7.356;2023-03-16T04:44:46;95293.34;;;2.23;59.03
49999;BME280;68071;45.062;7.356;2023-03-16T04:47:52;95293.97;;;3.72;49.26
49999;BME280;68071;45.062;7.356;2023-03-16T04:50:57;95302.00;;;2.74;55.77
49999;BME280;68071;45.062;7.356;2023-03-16T04:54:04;95308.69;;;2.44;57.82
49999;BME280;68071;45.062;7.356;2023-03-16T04:57:15;95305.72;;;2.05;59.75
49999;BME280;68071;45.062;7.356;2023-03-16T05:00:25;95314.22;;;2.03;60.08
49999;BME280;68071;45.062;7.356;2023-03-16T05:03:58;95318.31;;;1.81;60.96
49999;BME280;68071;45.062;7.356;2023-03-16T05:07:03;95322.53;;;2.23;58.08
49999;BME280;68071;45.062;7.356;2023-03-16T05:10:14;95327.50;;;2.65;54.83
49999;BME280;68071;45.062;7.356;2023-03-16T05:13:19;95329.88;;;2.67;54.79
49999;BME280;68071;45.062;7.356;2023-03-16T05:16:28;95322.03;;;2.97;52.56
49999;BME280;68071;45.062;7.356;2023-03-16T05:19:32;95323.63;;;2.82;54.13
49999;BME280;68071;45.062;7.356;2023-03-16T05:22:39;95328.28;;;2.82;53.42
49999;BME280;68071;45.062;7.356;2023-03-16T05:26:12;95330.25;;;2.81;54.29
49999;BME280;68071;45.062;7.356;2023-03-16T05:29:17;95341.84;;;2.94;53.62
49999;BME280;68071;45.062;7.356;2023-03-16T05:32:23;95341.75;;;3.07;51.83
49999;BME280;68071;45.062;7.356;2023-03-16T05:35:28;95329.25;;;3.41;51.24
49999;BME280;68071;45.062;7.356;2023-03-16T05:38:38;95340.38;;;3.32;52.48
49999;BME280;68071;45.062;7.356;2023-03-16T05:41:45;95343.34;;;3.08;53.39
49999;BME280;68071;45.062;7.356;2023-03-16T05:45:10;95345.25;;;3.23;50.96
49999;BME280;68071;45.062;7.356;2023-03-16T05:48:24;95345.38;;;3.11;52.25
49999;BME280;68071;45.062;7.356;2023-03-16T05:51:31;95347.44;;;3.53;50.28
49999;BME280;68071;45.062;7.356;2023-03-16T05:54:37;95342.59;;;3.62;51.07
49999;BME280;68071;45.062;7.356;2023-03-16T05:57:42;95343.88;;;2.65;56.29
49999;BME280;68071;45.062;7.356;2023-03-16T06:00:47;95340.25;;;2.29;61.08
49999;BME280;68071;45.062;7.356;2023-03-16T06:03:59;95343.34;;;2.44;60.29
49999;BME280;68071;45.062;7.356;2023-03-16T06:07:10;95352.81;;;2.34;63.32
49999;BME280;68071;45.062;7.356;2023-03-16T06:10:15;95356.03;;;2.07;63.81
49999;BME280;68071;45.062;7.356;2023-03-16T06:13:19;95367.28;;;2.66;59.03
49999;BME280;68071;45.062;7.356;2023-03-16T06:16:24;95361.94;;;3.02;55.97
49999;BME280;68071;45.062;7.356;2023-03-16T06:19:29;95370.84;;;3.35;56.13
49999;BME280;68071;45.062;7.356;2023-03-16T06:22:39;95382.50;;;3.31;61.68
49999;BME280;68071;45.062;7.356;2023-03-16T06:25:46;95384.19;;;3.36;57.92
49999;BME280;68071;45.062;7.356;2023-03-16T06:28:50;95390.41;;;3.53;56.57
49999;BME280;68071;45.062;7.356;2023-03-16T06:31:55;95396.19;;;3.51;55.71
49999;BME280;68071;45.062;7.356;2023-03-16T06:35:00;95403.41;;;3.75;53.12
49999;BME280;68071;45.062;7.356;2023-03-16T06:38:06;95404.19;;;3.96;52.65
49999;BME280;68071;45.062;7.356;2023-03-16T06:41:29;95402.06;;;4.05;51.57
49999;BME280;68071;45.062;7.356;2023-03-16T06:44:33;95394.69;;;4.09;50.55
49999;BME280;68071;45.062;7.356;2023-03-16T06:47:43;95408.72;;;3.88;61.67
49999;BME280;68071;45.062;7.356;2023-03-16T06:50:47;95413.03;;;3.89;58.18
49999;BME280;68071;45.062;7.356;2023-03-16T06:53:57;95417.88;;;4.35;50.25
49999;BME280;68071;45.062;7.356;2023-03-16T06:57:02;95419.88;;;4.58;49.40
49999;BME280;68071;45.062;7.356;2023-03-16T07:00:08;95409.56;;;4.71;49.22
49999;BME280;68071;45.062;7.356;2023-03-16T07:03:13;95420.97;;;4.96;46.54
49999;BME280;68071;45.062;7.356;2023-03-16T07:06:23;95415.59;;;5.03;47.20
49999;BME280;68071;45.062;7.356;2023-03-16T07:09:28;95426.81;;;5.18;45.89
49999;BME280;68071;45.062;7.356;2023-03-16T07:12:32;95427.25;;;5.20;46.62
49999;BME280;68071;45.062;7.356;2023-03-16T07:15:36;95427.03;;;5.32;46.99
49999;BME280;68071;45.062;7.356;2023-03-16T07:18:42;95434.00;;;5.80;47.97
49999;BME280;68071;45.062;7.356;2023-03-16T07:21:48;95437.91;;;5.79;47.22
49999;BME280;68071;45.062;7.356;2023-03-16T07:24:57;95441.69;;;5.67;46.94
49999;BME280;68071;45.062;7.356;2023-03-16T07:28:03;95447.28;;;5.78;47.17
49999;BME280;68071;45.062;7.356;2023-03-16T07:31:12;95447.69;;;5.76;46.28
49999;BME280;68071;45.062;7.356;2023-03-16T07:34:19;95457.09;;;5.79;46.05
49999;BME280;68071;45.062;7.356;2023-03-16T07:37:28;95472.59;;;6.17;46.39
49999;BME280;68071;45.062;7.356;2023-03-16T07:40:35;95466.22;;;6.10;46.37
49999;BME280;68071;45.062;7.356;2023-03-16T07:43:47;95470.16;;;6.12;46.22
49999;BME280;68071;45.062;7.356;2023-03-16T07:46:51;95474.22;;;6.22;46.21
49999;BME280;68071;45.062;7.356;2023-03-16T07:49:59;95476.59;;;6.24;45.83
49999;BME280;68071;45.062;7.356;2023-03-16T07:53:04;95480.97;;;6.28;47.29
49999;BME280;68071;45.062;7.356;2023-03-16T07:56:10;95475.84;;;6.27;46.65
49999;BME280;68071;45.062;7.356;2023-03-16T07:59:17;95477.69;;;6.49;44.74
49999;BME280;68071;45.062;7.356;2023-03-16T08:02:21;95475.03;;;6.23;44.37
49999;BME280;68071;45.062;7.356;2023-03-16T08:05:26;95478.84;;;6.18;44.34
49999;BME280;68071;45.062;7.356;2023-03-16T08:08:36;95484.00;;;6.19;44.03
49999;BME280;68071;45.062;7.356;2023-03-16T08:11:40;95483.63;;;6.21;44.77
49999;BME280;68071;45.062;7.356;2023-03-16T08:14:44;95485.75;;;6.35;43.31
49999;BME280;68071;45.062;7.356;2023-03-16T08:18:01;95494.50;;;6.44;44.07
49999;BME280;68071;45.062;7.356;2023-03-16T08:21:10;95489.53;;;6.54;43.67
49999;BME280;68071;45.062;7.356;2023-03-16T08:24:14;95493.56;;;6.63;43.45
49999;BME280;68071;45.062;7.356;2023-03-16T08:27:18;95482.03;;;6.50;43.32
49999;BME280;68071;45.062;7.356;2023-03-16T08:30:27;95482.91;;;6.58;43.09
49999;BME280;68071;45.062;7.356;2023-03-16T08:33:58;95484.28;;;6.75;42.80
49999;BME280;68071;45.062;7.356;2023-03-16T08:37:05;95490.53;;;6.72;42.70
49999;BME280;68071;45.062;7.356;2023-03-16T08:40:10;95490.47;;;6.99;44.34
49999;BME280;68071;45.062;7.356;2023-03-16T08:43:20;95488.06;;;6.97;42.24
49999;BME280;68071;45.062;7.356;2023-03-16T08:46:25;95489.56;;;7.29;42.38
49999;BME280;68071;45.062;7.356;2023-03-16T08:49:34;95484.59;;;7.04;42.52
49999;BME280;68071;45.062;7.356;2023-03-16T08:52:47;95494.97;;;7.18;43.35
49999;BME280;68071;45.062;7.356;2023-03-16T08:56:05;95499.59;;;7.10;42.30
49999;BME280;68071;45.062;7.356;2023-03-16T08:59:10;95494.22;;;7.21;40.02
49999;BME280;68071;45.062;7.356;2023-03-16T09:02:14;95504.09;;;7.30;44.45
49999;BME280;68071;45.062;7.356;2023-03-16T09:05:19;95519.31;;;7.61;44.91
49999;BME280;68071;45.062;7.356;2023-03-16T09:08:22;95513.38;;;7.55;42.40
49999;BME280;68071;45.062;7.356;2023-03-16T09:11:26;95513.91;;;7.31;41.12
49999;BME280;68071;45.062;7.356;2023-03-16T09:14:33;95526.78;;;7.61;43.06
49999;BME280;68071;45.062;7.356;2023-03-16T09:17:40;95513.53;;;7.74;39.80
49999;BME280;68071;45.062;7.356;2023-03-16T09:20:46;95516.41;;;7.88;40.80
49999;BME280;68071;45.062;7.356;2023-03-16T09:23:50;95513.56;;;8.37;42.35
49999;BME280;68071;45.062;7.356;2023-03-16T09:26:54;95509.78;;;8.56;40.72
49999;BME280;68071;45.062;7.356;2023-03-16T09:29:58;95511.00;;;8.66;39.17
49999;BME280;68071;45.062;7.356;2023-03-16T09:33:03;95514.19;;;8.68;38.04
49999;BME280;68071;45.062;7.356;2023-03-16T09:36:07;95508.06;;;8.33;37.44
49999;BME280;68071;45.062;7.356;2023-03-16T09:39:14;95510.47;;;8.42;39.12
49999;BME280;68071;45.062;7.356;2023-03-16T09:42:40;95507.84;;;8.00;37.29
49999;BME280;68071;45.062;7.356;2023-03-16T09:49:12;95521.28;;;8.69;42.14
49999;BME280;68071;45.062;7.356;2023-03-16T09:52:24;95522.75;;;8.52;40.25
49999;BME280;68071;45.062;7.356;2023-03-16T09:55:34;95511.38;;;8.57;38.42
49999;BME280;68071;45.062;7.356;2023-03-16T09:58:40;95525.25;;;8.78;38.23
49999;BME280;68071;45.062;7.356;2023-03-16T10:08:21;95525.03;;;9.38;38.30
49999;BME280;68071;45.062;7.356;2023-03-16T10:11:48;95527.72;;;9.20;38.81
49999;BME280;68071;45.062;7.356;2023-03-16T10:15:08;95521.41;;;9.12;39.86
49999;BME280;68071;45.062;7.356;2023-03-16T10:18:18;95525.84;;;9.46;37.13
49999;BME280;68071;45.062;7.356;2023-03-16T10:21:24;95519.47;;;9.20;39.21
49999;BME280;68071;45.062;7.356;2023-03-16T10:27:42;95527.22;;;8.82;37.20
49999;BME280;68071;45.062;7.356;2023-03-16T10:30:49;95522.25;;;9.27;40.06
49999;BME280;68071;45.062;7.356;2023-03-16T10:34:00;95532.13;;;9.43;39.90
49999;BME280;68071;45.062;7.356;2023-03-16T10:37:05;95526.63;;;9.35;38.04
49999;BME280;68071;45.062;7.356;2023-03-16T10:40:12;95522.31;;;9.49;39.08
49999;BME280;68071;45.062;7.356;2023-03-16T10:43:16;95526.25;;;9.66;37.81
49999;BME280;68071;45.062;7.356;2023-03-16T10:46:21;95536.44;;;9.36;38.13
49999;BME280;68071;45.062;7.356;2023-03-16T10:49:27;95532.44;;;9.08;39.47
49999;BME280;68071;45.062;7.356;2023-03-16T10:52:40;95535.97;;;9.05;37.14
49999;BME280;68071;45.062;7.356;2023-03-16T10:55:47;95532.91;;;9.39;38.32
49999;BME280;68071;45.062;7.356;2023-03-16T10:58:51;95536.91;;;9.75;37.98
49999;BME280;68071;45.062;7.356;2023-03-16T11:01:55;95538.13;;;9.88;38.20
49999;BME280;68071;45.062;7.356;2023-03-16T11:05:32;95536.91;;;9.96;36.46
49999;BME280;68071;45.062;7.356;2023-03-16T11:08:38;95534.56;;;9.91;36.87
49999;BME280;68071;45.062;7.356;2023-03-16T11:11:48;95534.16;;;9.78;37.76
49999;BME280;68071;45.062;7.356;2023-03-16T11:14:52;95527.84;;;10.21;35.26
49999;BME280;68071;45.062;7.356;2023-03-16T11:17:57;95527.03;;;10.24;35.08
49999;BME280;68071;45.062;7.356;2023-03-16T11:21:13;95528.63;;;9.82;38.03
49999;BME280;68071;45.062;7.356;2023-03-16T11:24:29;95531.00;;;10.05;36.42
49999;BME280;68071;45.062;7.356;2023-03-16T11:31:20;95515.59;;;10.33;36.42
49999;BME280;68071;45.062;7.356;2023-03-16T11:34:27;95515.19;;;10.35;37.51
49999;BME280;68071;45.062;7.356;2023-03-16T11:37:49;95513.66;;;10.01;36.91
49999;BME280;68071;45.062;7.356;2023-03-16T11:41:02;95508.50;;;10.21;37.11
49999;BME280;68071;45.062;7.356;2023-03-16T11:44:28;95515.59;;;10.15;37.13
49999;BME280;68071;45.062;7.356;2023-03-16T11:48:02;95521.53;;;10.13;36.63
49999;BME280;68071;45.062;7.356;2023-03-16T11:54:38;95514.03;;;10.10;37.04
49999;BME280;68071;45.062;7.356;2023-03-16T12:11:30;95499.53;;;11.80;34.87
49999;BME280;68071;45.062;7.356;2023-03-16T12:18:17;95494.22;;;11.44;35.07
49999;BME280;68071;45.062;7.356;2023-03-16T12:21:29;95493.03;;;10.64;36.28
49999;BME280;68071;45.062;7.356;2023-03-16T12:24:40;95497.38;;;10.68;35.67
49999;BME280;68071;45.062;7.356;2023-03-16T12:27:49;95486.63;;;10.92;37.13
49999;BME280;68071;45.062;7.356;2023-03-16T12:31:06;95481.25;;;10.49;37.62
49999;BME280;68071;45.062;7.356;2023-03-16T12:34:34;95478.44;;;10.52;37.71
49999;BME280;68071;45.062;7.356;2023-03-16T12:44:17;95474.50;;;11.91;35.04
49999;BME280;68071;45.062;7.356;2023-03-16T12:47:36;95461.72;;;12.08;34.29
49999;BME280;68071;45.062;7.356;2023-03-16T12:50:51;95456.88;;;11.71;36.04
49999;BME280;68071;45.062;7.356;2023-03-16T12:53:55;95460.03;;;11.13;38.08
49999;BME280;68071;45.062;7.356;2023-03-16T12:57:02;95468.03;;;10.96;38.01
49999;BME280;68071;45.062;7.356;2023-03-16T13:00:09;95453.25;;;11.21;39.20
49999;BME280;68071;45.062;7.356;2023-03-16T13:03:14;95451.09;;;10.80;38.39
49999;BME280;68071;45.062;7.356;2023-03-16T13:06:21;95461.16;;;11.23;40.51
49999;BME280;68071;45.062;7.356;2023-03-16T13:09:27;95453.75;;;11.05;37.88
49999;BME280;68071;45.062;7.356;2023-03-16T13:12:36;95452.38;;;10.68;39.48
49999;BME280;68071;45.062;7.356;2023-03-16T13:15:43;95452.63;;;10.92;36.26
49999;BME280;68071;45.062;7.356;2023-03-16T13:18:50;95443.06;;;11.07;38.48
49999;BME280;68071;45.062;7.356;2023-03-16T13:22:19;95441.53;;;10.99;37.61
49999;BME280;68071;45.062;7.356;2023-03-16T13:28:37;95447.88;;;10.96;38.75
49999;BME280;68071;45.062;7.356;2023-03-16T13:31:41;95435.69;;;10.82;40.13
49999;BME280;68071;45.062;7.356;2023-03-16T13:34:51;95434.03;;;11.03;38.70
49999;BME280;68071;45.062;7.356;2023-03-16T13:38:04;95438.28;;;11.15;38.07
49999;BME280;68071;45.062;7.356;2023-03-16T13:41:10;95434.91;;;10.85;37.05
49999;BME280;68071;45.062;7.356;2023-03-16T13:44:17;95435.91;;;11.13;36.96
49999;BME280;68071;45.062;7.356;2023-03-16T13:47:21;95426.91;;;11.58;35.84
49999;BME280;68071;45.062;7.356;2023-03-16T13:50:26;95434.25;;;11.30;36.09
49999;BME280;68071;45.062;7.356;2023-03-16T13:53:30;95429.25;;;11.03;37.39
49999;BME280;68071;45.062;7.356;2023-03-16T13:56:35;95433.72;;;10.83;40.15
49999;BME280;68071;45.062;7.356;2023-03-16T13:59:41;95438.75;;;11.06;41.19
49999;BME280;68071;45.062;7.356;2023-03-16T14:02:51;95429.69;;;10.98;36.31
49999;BME280;68071;45.062;7.356;2023-03-16T14:05:56;95426.56;;;11.53;36.13
49999;BME280;68071;45.062;7.356;2023-03-16T14:09:03;95426.13;;;12.03;34.90
49999;BME280;68071;45.062;7.356;2023-03-16T14:12:13;95431.56;;;12.18;34.48
49999;BME280;68071;45.062;7.356;2023-03-16T14:15:17;95419.78;;;12.06;35.59
49999;BME280;68071;45.062;7.356;2023-03-16T14:18:23;95429.91;;;11.78;38.07
49999;BME280;68071;45.062;7.356;2023-03-16T14:21:31;95437.97;;;11.62;37.43
49999;BME280;68071;45.062;7.356;2023-03-16T14:24:39;95430.53;;;11.97;38.49
49999;BME280;68071;45.062;7.356;2023-03-16T14:27:44;95430.69;;;12.59;35.41
49999;BME280;68071;45.062;7.356;2023-03-16T14:30:50;95430.09;;;12.44;35.87
49999;BME280;68071;45.062;7.356;2023-03-16T14:34:00;95432.13;;;11.49;37.98
49999;BME280;68071;45.062;7.356;2023-03-16T14:37:06;95429.31;;;11.53;37.39
49999;BME280;68071;45.062;7.356;2023-03-16T14:40:30;95436.94;;;11.41;35.77
49999;BME280;68071;45.062;7.356;2023-03-16T14:43:37;95437.00;;;11.27;38.04
49999;BME280;68071;45.062;7.356;2023-03-16T14:46:44;95430.66;;;11.30;38.52
49999;BME280;68071;45.062;7.356;2023-03-16T14:49:48;95433.13;;;11.17;39.71
49999;BME280;68071;45.062;7.356;2023-03-16T14:52:54;95422.41;;;11.75;38.70
49999;BME280;68071;45.062;7.356;2023-03-16T14:55:59;95425.38;;;11.54;38.65
49999;BME280;68071;45.062;7.356;2023-03-16T14:59:03;95427.06;;;11.89;37.76
49999;BME280;68071;45.062;7.356;2023-03-16T15:02:17;95422.75;;;11.81;37.50
49999;BME280;68071;45.062;7.356;2023-03-16T15:05:29;95427.38;;;11.95;36.57
49999;BME280;68071;45.062;7.356;2023-03-16T15:08:35;95423.84;;;12.33;34.75
49999;BME280;68071;45.062;7.356;2023-03-16T15:11:46;95428.88;;;12.45;35.07
49999;BME280;68071;45.062;7.356;2023-03-16T15:14:50;95429.41;;;12.67;34.02
49999;BME280;68071;45.062;7.356;2023-03-16T15:18:13;95435.13;;;12.53;35.20
49999;BME280;68071;45.062;7.356;2023-03-16T15:21:22;95441.72;;;12.28;36.54
49999;BME280;68071;45.062;7.356;2023-03-16T15:24:27;95441.44;;;12.57;36.09
49999;BME280;68071;45.062;7.356;2023-03-16T15:27:34;95436.06;;;11.97;37.50
49999;BME280;68071;45.062;7.356;2023-03-16T15:30:39;95435.22;;;11.02;37.55
49999;BME280;68071;45.062;7.356;2023-03-16T15:33:43;95439.84;;;11.16;38.46
49999;BME280;68071;45.062;7.356;2023-03-16T15:36:48;95431.59;;;11.65;36.95
49999;BME280;68071;45.062;7.356;2023-03-16T15:39:52;95434.97;;;11.87;35.90
49999;BME280;68071;45.062;7.356;2023-03-16T15:42:56;95420.63;;;12.00;35.71
49999;BME280;68071;45.062;7.356;2023-03-16T15:46:00;95415.84;;;12.42;35.93
49999;BME280;68071;45.062;7.356;2023-03-16T15:49:04;95420.97;;;12.44;34.91
49999;BME280;68071;45.062;7.356;2023-03-16T15:52:25;95422.63;;;12.37;35.60
49999;BME280;68071;45.062;7.356;2023-03-16T15:55:35;95421.22;;;12.56;34.58
49999;BME280;68071;45.062;7.356;2023-03-16T15:58:41;95424.50;;;12.79;35.10
49999;BME280;68071;45.062;7.356;2023-03-16T16:01:49;95423.53;;;12.62;35.31
49999;BME280;68071;45.062;7.356;2023-03-16T16:04:54;95418.97;;;12.79;33.36
49999;BME280;68071;45.062;7.356;2023-03-16T16:07:59;95422.63;;;11.95;35.84
49999;BME280;68071;45.062;7.356;2023-03-16T16:11:09;95419.13;;;12.33;37.50
49999;BME280;68071;45.062;7.356;2023-03-16T16:14:20;95422.31;;;12.28;36.38
49999;BME280;68071;45.062;7.356;2023-03-16T16:17:25;95416.69;;;12.70;35.21
49999;BME280;68071;45.062;7.356;2023-03-16T16:20:31;95420.09;;;12.16;36.35
49999;BME280;68071;45.062;7.356;2023-03-16T16:23:36;95429.19;;;11.71;37.13
49999;BME280;68071;45.062;7.356;2023-03-16T16:26:43;95425.81;;;11.94;37.24
49999;BME280;68071;45.062;7.356;2023-03-16T16:29:52;95426.25;;;11.89;37.51
49999;BME280;68071;45.062;7.356;2023-03-16T16:32:56;95416.69;;;11.97;38.11
49999;BME280;68071;45.062;7.356;2023-03-16T16:36:09;95428.25;;;11.35;37.07
49999;BME280;68071;45.062;7.356;2023-03-16T16:39:14;95435.75;;;11.42;37.94
49999;BME280;68071;45.062;7.356;2023-03-16T16:42:18;95436.47;;;11.46;38.96
49999;BME280;68071;45.062;7.356;2023-03-16T16:45:24;95438.66;;;11.20;43.06
49999;BME280;68071;45.062;7.356;2023-03-16T16:48:34;95446.75;;;10.79;45.69
49999;BME280;68071;45.062;7.356;2023-03-16T16:51:39;95447.22;;;10.66;48.02
49999;BME280;68071;45.062;7.356;2023-03-16T16:54:43;95448.28;;;10.94;42.25
49999;BME280;68071;45.062;7.356;2023-03-16T16:57:51;95453.78;;;10.98;41.60
49999;BME280;68071;45.062;7.356;2023-03-16T17:00:56;95450.03;;;10.59;43.57
49999;BME280;68071;45.062;7.356;2023-03-16T17:04:01;95458.81;;;10.07;46.72
49999;BME280;68071;45.062;7.356;2023-03-16T17:07:09;95462.78;;;9.48;47.30
49999;BME280;68071;45.062;7.356;2023-03-16T17:10:20;95466.34;;;9.74;46.73
49999;BME280;68071;45.062;7.356;2023-03-16T17:13:36;95467.47;;;9.36;46.11
49999;BME280;68071;45.062;7.356;2023-03-16T17:16:44;95468.69;;;9.39;46.03
49999;BME280;68071;45.062;7.356;2023-03-16T17:19:50;95469.78;;;9.09;46.71
49999;BME280;68071;45.062;7.356;2023-03-16T17:22:56;95477.59;;;8.74;48.25
49999;BME280;68071;45.062;7.356;2023-03-16T17:26:08;95473.28;;;8.10;45.32
49999;BME280;68071;45.062;7.356;2023-03-16T17:29:24;95482.44;;;7.66;45.77
49999;BME280;68071;45.062;7.356;2023-03-16T17:32:29;95484.56;;;7.91;47.56
49999;BME280;68071;45.062;7.356;2023-03-16T17:35:33;95490.75;;;7.32;49.57
49999;BME280;68071;45.062;7.356;2023-03-16T17:38:37;95496.09;;;7.14;51.18
49999;BME280;68071;45.062;7.356;2023-03-16T17:41:42;95491.63;;;7.39;48.12
49999;BME280;68071;45.062;7.356;2023-03-16T17:44:48;95507.53;;;7.19;49.90